sensor_id;sensor_type;location;lat;lon;timestamp;pressure;altitude;pressure_sealevel;temperature;humidity
37878;BME280;23715;53.652;8.516;2023-01-23T00:04:36;103786.80;;;5.73;100.00
37878;BME280;23715;53.652;8.516;2023-01-23T00:09:37;103793.82;;;5.78;100.00
37878;BME280;23715;53.652;8.516;2023-01-23T00:14:37;103792.59;;;5.74;100.00
37878;BME280;23715;53.652;8.516;2023-01-23T00:19:37;103792.95;;;5.78;100.00
37878;BME280;23715;53.652;8.516;2023-01-23T00:24:39;103794.77;;;5.76;100.00
37878;BME280;23715;53.652;8.516;2023-01-23T00:29:39;103791.20;;;5.77;100.00
37878;BME280;23715;53.652;8.516;2023-01-23T00:34:39;103790.55;;;5.88;100.00
37878;BME280;23715;53.652;8.516;2023-01-23T00:39:40;103795.01;;;5.86;100.00
37878;BME280;23715;53.652;8.516;2023-01-23T00:44:42;103789.98;;;5.93;100.00
37878;BME280;23715;53.652;8.516;2023-01-23T00:49:42;103778.42;;;5.68;100.00
37878;BME280;23715;53.652;8.516;2023-01-23T00:54:43;103779.03;;;5.60;100.00
37878;BME280;23715;53.652;8.516;2023-01-23T00:59:43;103776.50;;;5.53;100.00
37878;BME280;23715;53.652;8.516;2023-01-23T01:04:44;103772.68;;;5.67;100.00
37878;BME280;23715;53.652;8.516;2023-01-23T01:09:44;103778.36;;;5.47;100.00
37878;BME280;23715;53.652;8.516;2023-01-23T01:14:44;103786.88;;;5.70;100.00
37878;BME280;23715;53.652;8.516;2023-01-23T01:19:46;103791.80;;;5.67;100.00
37878;BME280;23715;53.652;8.516;2023-01-23T01:24:47;103778.28;;;5.76;100.00
37878;BME280;23715;53.652;8.516;2023-01-23T01:29:47;103771.92;;;5.59;100.00
37878;BME280;23715;53.652;8.516;2023-01-23T01:34:47;103788.98;;;5.52;100.00
37878;BME280;23715;53.652;8.516;2023-01-23T01:39:48;103794.95;;;5.65;100.00
37878;BME280;23715;53.652;8.516;2023-01-23T01:44:54;103803.22;;;5.77;100.00
37878;BME280;23715;53.652;8.516;2023-01-23T01:49:54;103812.38;;;5.86;100.00
37878;BME280;23715;53.652;8.516;2023-01-23T01:54:57;103822.91;;;5.94;100.00
37878;BME280;23715;53.652;8.516;2023-01-23T02:00:11;103825.58;;;5.94;100.00
37878;BME280;23715;53.652;8.516;2023-01-23T02:05:15;103817.67;;;5.89;100.00
37878;BME280;23715;53.652;8.516;2023-01-23T02:10:16;103804.45;;;5.81;100.00
37878;BME280;23715;53.652;8.516;2023-01-23T02:15:18;103806.46;;;5.68;100.00
37878;BME280;23715;53.652;8.516;2023-01-23T02:20:25;103805.98;;;5.46;100.00
37878;BME280;23715;53.652;8.516;2023-01-23T02:26:06;103808.59;;;5.48;100.00
37878;BME280;23715;53.652;8.516;2023-01-23T02:31:07;103817.11;;;5.17;100.00
37878;BME280;23715;53.652;8.516;2023-01-23T02:36:08;103817.32;;;5.32;100.00
37878;BME280;23715;53.652;8.516;2023-01-23T02:41:11;103816.25;;;5.15;100.00
37878;BME280;23715;53.652;8.516;2023-01-23T02:46:13;103828.73;;;5.13;100.00
37878;BME280;23715;53.652;8.516;2023-01-23T02:51:13;103838.79;;;5.24;100.00
37878;BME280;23715;53.652;8.516;2023-01-23T02:56:15;103838.40;;;5.22;100.00
37878;BME280;23715;53.652;8.516;2023-01-23T03:01:16;103846.16;;;5.08;100.00
37878;BME280;23715;53.652;8.516;2023-01-23T03:06:16;103853.36;;;5.31;100.00
37878;BME280;23715;53.652;8.516;2023-01-23T03:11:18;103864.34;;;5.41;100.00
37878;BME280;23715;53.652;8.516;2023-01-23T03:16:19;103859.87;;;5.68;100.00
37878;BME280;23715;53.652;8.516;2023-01-23T03:21:19;103857.75;;;5.63;100.00
37878;BME280;23715;53.652;8.516;2023-01-23T03:26:19;103854.25;;;5.60;100.00
37878;BME280;23715;53.652;8.516;2023-01-23T03:31:20;103867.13;;;5.60;100.00
37878;BME280;23715;53.652;8.516;2023-01-23T03:36:20;103868.30;;;5.71;100.00
37878;BME280;23715;53.652;8.516;2023-01-23T03:41:21;103877.11;;;5.75;100.00
37878;BME280;23715;53.652;8.516;2023-01-23T03:46:25;103886.17;;;5.66;100.00
37878;BME280;23715;53.652;8.516;2023-01-23T03:51:25;103884.37;;;5.66;100.00
37878;BME280;23715;53.652;8.516;2023-01-23T03:56:26;103887.05;;;5.66;100.00
37878;BME280;23715;53.652;8.516;2023-01-23T04:06:29;103882.16;;;5.67;100.00
37878;BME280;23715;53.652;8.516;2023-01-23T04:11:31;103888.02;;;5.62;100.00
37878;BME280;23715;53.652;8.516;2023-01-23T04:16:31;103886.72;;;5.59;100.00
37878;BME280;23715;53.652;8.516;2023-01-23T04:21:31;103884.97;;;5.58;100.00
37878;BME280;23715;53.652;8.516;2023-01-23T04:26:31;103892.85;;;5.66;100.00
37878;BME280;23715;53.652;8.516;2023-01-23T04:31:34;103883.19;;;5.57;100.00
37878;BME280;23715;53.652;8.516;2023-01-23T04:36:35;103886.48;;;5.46;100.00
37878;BME280;23715;53.652;8.516;2023-01-23T04:41:36;103892.64;;;5.51;100.00
37878;BME280;23715;53.652;8.516;2023-01-23T04:46:43;103894.08;;;5.45;100.00
37878;BME280;23715;53.652;8.516;2023-01-23T04:51:46;103894.69;;;5.62;100.00
37878;BME280;23715;53.652;8.516;2023-01-23T04:56:49;103900.88;;;5.64;100.00
37878;BME280;23715;53.652;8.516;2023-01-23T05:01:50;103893.02;;;5.55;100.00
37878;BME280;23715;53.652;8.516;2023-01-23T05:06:51;103898.42;;;5.52;100.00
37878;BME280;23715;53.652;8.516;2023-01-23T05:11:52;103903.20;;;5.59;100.00
37878;BME280;23715;53.652;8.516;2023-01-23T05:16:54;103917.87;;;5.59;100.00
37878;BME280;23715;53.652;8.516;2023-01-23T05:22:04;103917.87;;;5.59;100.00
37878;BME280;23715;53.652;8.516;2023-01-23T05:27:05;103930.70;;;5.65;100.00
37878;BME280;23715;53.652;8.516;2023-01-23T05:32:07;103936.92;;;5.64;100.00
37878;BME280;23715;53.652;8.516;2023-01-23T05:37:12;103936.52;;;5.63;100.00
37878;BME280;23715;53.652;8.516;2023-01-23T05:42:14;103939.56;;;5.67;100.00
37878;BME280;23715;53.652;8.516;2023-01-23T05:47:16;103937.94;;;5.56;100.00
37878;BME280;23715;53.652;8.516;2023-01-23T05:52:17;103955.16;;;5.65;100.00
37878;BME280;23715;53.652;8.516;2023-01-23T05:57:17;103946.85;;;5.56;100.00
37878;BME280;23715;53.652;8.516;2023-01-23T06:02:25;103939.36;;;5.51;100.00
37878;BME280;23715;53.652;8.516;2023-01-23T06:07:44;103945.14;;;5.52;100.00
37878;BME280;23715;53.652;8.516;2023-01-23T06:12:45;103938.66;;;5.37;100.00
37878;BME280;23715;53.652;8.516;2023-01-23T06:17:45;103939.19;;;5.33;100.00
37878;BME280;23715;53.652;8.516;2023-01-23T06:22:48;103939.62;;;5.33;100.00
37878;BME280;23715;53.652;8.516;2023-01-23T06:27:51;103939.08;;;5.41;100.00
37878;BME280;23715;53.652;8.516;2023-01-23T06:32:51;103940.52;;;5.33;100.00
37878;BME280;23715;53.652;8.516;2023-01-23T06:37:53;103948.69;;;5.21;100.00
37878;BME280;23715;53.652;8.516;2023-01-23T06:42:55;103944.86;;;5.08;100.00
37878;BME280;23715;53.652;8.516;2023-01-23T06:47:55;103952.69;;;5.21;100.00
37878;BME280;23715;53.652;8.516;2023-01-23T06:52:57;103960.45;;;5.38;100.00
37878;BME280;23715;53.652;8.516;2023-01-23T06:57:59;103966.67;;;5.38;100.00
37878;BME280;23715;53.652;8.516;2023-01-23T07:02:59;103980.56;;;5.32;100.00
37878;BME280;23715;53.652;8.516;2023-01-23T07:08:02;103987.59;;;5.39;100.00
37878;BME280;23715;53.652;8.516;2023-01-23T07:13:07;103991.23;;;5.33;100.00
37878;BME280;23715;53.652;8.516;2023-01-23T07:18:08;103997.73;;;5.44;100.00
37878;BME280;23715;53.652;8.516;2023-01-23T07:23:09;103998.67;;;5.41;100.00
37878;BME280;23715;53.652;8.516;2023-01-23T07:28:10;104004.03;;;5.38;100.00
37878;BME280;23715;53.652;8.516;2023-01-23T07:33:11;104005.38;;;5.37;100.00
37878;BME280;23715;53.652;8.516;2023-01-23T07:38:11;104016.06;;;5.37;100.00
37878;BME280;23715;53.652;8.516;2023-01-23T07:43:12;104025.94;;;5.32;100.00
37878;BME280;23715;53.652;8.516;2023-01-23T07:48:12;104035.58;;;5.42;100.00
37878;BME280;23715;53.652;8.516;2023-01-23T07:53:12;104033.08;;;5.30;100.00
37878;BME280;23715;53.652;8.516;2023-01-23T07:58:13;104036.61;;;5.32;100.00
37878;BME280;23715;53.652;8.516;2023-01-23T08:03:13;104041.84;;;5.41;100.00
37878;BME280;23715;53.652;8.516;2023-01-23T08:08:14;104042.36;;;5.33;100.00
37878;BME280;23715;53.652;8.516;2023-01-23T08:13:14;104055.18;;;5.41;100.00
37878;BME280;23715;53.652;8.516;2023-01-23T08:18:15;104054.73;;;5.40;100.00
37878;BME280;23715;53.652;8.516;2023-01-23T08:23:15;104052.81;;;5.16;100.00
37878;BME280;23715;53.652;8.516;2023-01-23T08:28:16;104059.38;;;5.25;100.00
37878;BME280;23715;53.652;8.516;2023-01-23T08:33:17;104063.32;;;5.28;100.00
37878;BME280;23715;53.652;8.516;2023-01-23T08:38:18;104060.16;;;5.34;100.00
37878;BME280;23715;53.652;8.516;2023-01-23T08:43:19;104059.42;;;5.19;100.00
37878;BME280;23715;53.652;8.516;2023-01-23T08:48:20;104067.98;;;5.11;100.00
37878;BME280;23715;53.652;8.516;2023-01-23T08:53:21;104074.09;;;5.21;100.00
37878;BME280;23715;53.652;8.516;2023-01-23T08:58:21;104081.16;;;5.23;100.00
37878;BME280;23715;53.652;8.516;2023-01-23T09:03:21;104081.45;;;5.37;100.00
37878;BME280;23715;53.652;8.516;2023-01-23T09:08:22;104089.14;;;5.26;100.00
37878;BME280;23715;53.652;8.516;2023-01-23T09:13:22;104089.41;;;5.43;100.00
37878;BME280;23715;53.652;8.516;2023-01-23T09:18:22;104088.47;;;5.45;100.00
37878;BME280;23715;53.652;8.516;2023-01-23T09:23:23;104083.41;;;5.59;100.00
37878;BME280;23715;53.652;8.516;2023-01-23T09:28:23;104081.88;;;5.41;100.00
37878;BME280;23715;53.652;8.516;2023-01-23T09:33:24;104097.81;;;5.45;100.00
37878;BME280;23715;53.652;8.516;2023-01-23T09:38:25;104099.50;;;5.54;100.00
37878;BME280;23715;53.652;8.516;2023-01-23T09:48:50;104095.70;;;5.71;100.00
37878;BME280;23715;53.652;8.516;2023-01-23T09:53:46;104098.97;;;5.59;100.00
37878;BME280;23715;53.652;8.516;2023-01-23T09:58:57;104094.56;;;5.57;100.00
37878;BME280;23715;53.652;8.516;2023-01-23T10:03:52;104092.62;;;5.70;100.00
37878;BME280;23715;53.652;8.516;2023-01-23T10:09:10;104101.41;;;5.78;100.00
37878;BME280;23715;53.652;8.516;2023-01-23T10:24:55;104084.55;;;5.73;100.00
37878;BME280;23715;53.652;8.516;2023-01-23T10:30:06;104088.52;;;5.77;100.00
37878;BME280;23715;53.652;8.516;2023-01-23T10:35:19;104097.40;;;5.78;100.00
37878;BME280;23715;53.652;8.516;2023-01-23T10:40:17;104100.27;;;5.97;100.00
37878;BME280;23715;53.652;8.516;2023-01-23T10:45:35;104094.05;;;5.97;100.00
37878;BME280;23715;53.652;8.516;2023-01-23T10:50:37;104083.38;;;5.95;100.00
37878;BME280;23715;53.652;8.516;2023-01-23T10:55:42;104084.00;;;5.82;100.00
37878;BME280;23715;53.652;8.516;2023-01-23T11:00:46;104078.28;;;6.09;100.00
37878;BME280;23715;53.652;8.516;2023-01-23T11:11:23;104086.73;;;6.11;100.00
37878;BME280;23715;53.652;8.516;2023-01-23T11:16:20;104086.64;;;6.16;100.00
37878;BME280;23715;53.652;8.516;2023-01-23T11:21:26;104081.52;;;6.31;100.00
37878;BME280;23715;53.652;8.516;2023-01-23T11:26:32;104080.16;;;6.58;100.00
37878;BME280;23715;53.652;8.516;2023-01-23T11:31:33;104077.01;;;6.34;100.00
37878;BME280;23715;53.652;8.516;2023-01-23T11:41:51;104071.86;;;6.49;100.00
37878;BME280;23715;53.652;8.516;2023-01-23T12:08:35;104067.78;;;6.52;100.00
37878;BME280;23715;53.652;8.516;2023-01-23T12:45:45;104050.95;;;6.47;100.00
37878;BME280;23715;53.652;8.516;2023-01-23T12:51:02;104050.95;;;6.47;100.00
37878;BME280;23715;53.652;8.516;2023-01-23T12:56:28;104059.91;;;6.70;100.00
37878;BME280;23715;53.652;8.516;2023-01-23T13:06:38;104062.61;;;6.93;100.00
37878;BME280;23715;53.652;8.516;2023-01-23T13:16:47;104059.68;;;7.05;100.00
37878;BME280;23715;53.652;8.516;2023-01-23T13:27:39;104050.78;;;7.04;100.00
37878;BME280;23715;53.652;8.516;2023-01-23T13:32:40;104068.05;;;7.11;100.00
37878;BME280;23715;53.652;8.516;2023-01-23T13:37:48;104060.68;;;6.99;100.00
37878;BME280;23715;53.652;8.516;2023-01-23T13:42:51;104058.81;;;6.80;100.00
37878;BME280;23715;53.652;8.516;2023-01-23T13:48:16;104057.84;;;6.84;100.00
37878;BME280;23715;53.652;8.516;2023-01-23T13:53:31;104048.64;;;6.75;100.00
37878;BME280;23715;53.652;8.516;2023-01-23T13:58:50;104048.64;;;6.75;100.00
37878;BME280;23715;53.652;8.516;2023-01-23T14:03:53;104065.94;;;6.81;100.00
37878;BME280;23715;53.652;8.516;2023-01-23T14:14:21;104047.53;;;6.89;100.00
37878;BME280;23715;53.652;8.516;2023-01-23T14:19:54;104027.88;;;6.90;100.00
37878;BME280;23715;53.652;8.516;2023-01-23T14:24:55;104022.70;;;6.80;100.00
37878;BME280;23715;53.652;8.516;2023-01-23T14:30:00;104015.89;;;6.64;100.00
37878;BME280;23715;53.652;8.516;2023-01-23T14:35:01;104007.20;;;6.51;100.00
37878;BME280;23715;53.652;8.516;2023-01-23T14:40:04;104005.06;;;6.46;100.00
37878;BME280;23715;53.652;8.516;2023-01-23T14:45:05;103991.00;;;6.35;100.00
37878;BME280;23715;53.652;8.516;2023-01-23T14:50:08;103992.16;;;6.45;100.00
37878;BME280;23715;53.652;8.516;2023-01-23T14:55:20;103994.83;;;6.45;100.00
37878;BME280;23715;53.652;8.516;2023-01-23T15:00:21;103996.58;;;6.47;100.00
37878;BME280;23715;53.652;8.516;2023-01-23T15:05:24;103988.56;;;6.47;100.00
37878;BME280;23715;53.652;8.516;2023-01-23T15:10:33;103995.73;;;6.44;100.00
37878;BME280;23715;53.652;8.516;2023-01-23T15:15:34;103993.98;;;6.43;100.00
37878;BME280;23715;53.652;8.516;2023-01-23T15:20:39;104003.05;;;6.33;100.00
37878;BME280;23715;53.652;8.516;2023-01-23T15:25:40;104015.94;;;6.35;100.00
37878;BME280;23715;53.652;8.516;2023-01-23T15:30:43;104015.50;;;6.36;100.00
37878;BME280;23715;53.652;8.516;2023-01-23T15:35:44;104018.66;;;6.34;100.00
37878;BME280;23715;53.652;8.516;2023-01-23T15:40:44;104026.70;;;6.32;100.00
37878;BME280;23715;53.652;8.516;2023-01-23T15:45:45;104029.17;;;6.17;100.00
37878;BME280;23715;53.652;8.516;2023-01-23T15:50:45;104036.11;;;6.28;100.00
37878;BME280;23715;53.652;8.516;2023-01-23T15:55:46;104045.22;;;6.16;100.00
37878;BME280;23715;53.652;8.516;2023-01-23T16:00:47;104059.09;;;6.11;100.00
37878;BME280;23715;53.652;8.516;2023-01-23T16:05:47;104066.19;;;6.15;100.00
37878;BME280;23715;53.652;8.516;2023-01-23T16:10:48;104071.43;;;6.21;100.00
37878;BME280;23715;53.652;8.516;2023-01-23T16:15:49;104074.85;;;6.29;100.00
37878;BME280;23715;53.652;8.516;2023-01-23T16:20:49;104072.75;;;6.22;100.00
37878;BME280;23715;53.652;8.516;2023-01-23T16:25:49;104078.71;;;6.11;100.00
37878;BME280;23715;53.652;8.516;2023-01-23T16:30:50;104090.78;;;6.06;100.00
37878;BME280;23715;53.652;8.516;2023-01-23T16:35:51;104087.73;;;6.02;100.00
37878;BME280;23715;53.652;8.516;2023-01-23T16:40:52;104085.44;;;6.06;100.00
37878;BME280;23715;53.652;8.516;2023-01-23T16:45:53;104078.83;;;6.03;100.00
37878;BME280;23715;53.652;8.516;2023-01-23T16:51:04;104090.09;;;5.92;100.00
37878;BME280;23715;53.652;8.516;2023-01-23T16:56:06;104090.09;;;5.92;100.00
37878;BME280;23715;53.652;8.516;2023-01-23T17:01:19;104096.27;;;5.97;100.00
37878;BME280;23715;53.652;8.516;2023-01-23T17:06:20;104107.08;;;5.88;100.00
37878;BME280;23715;53.652;8.516;2023-01-23T17:11:23;104113.88;;;6.11;100.00
37878;BME280;23715;53.652;8.516;2023-01-23T17:16:24;104110.95;;;5.97;100.00
37878;BME280;23715;53.652;8.516;2023-01-23T17:21:31;104114.73;;;6.13;100.00
37878;BME280;23715;53.652;8.516;2023-01-23T17:26:28;104121.23;;;5.96;100.00
37878;BME280;23715;53.652;8.516;2023-01-23T17:31:28;104130.56;;;5.98;100.00
37878;BME280;23715;53.652;8.516;2023-01-23T17:36:30;104131.04;;;5.96;100.00
37878;BME280;23715;53.652;8.516;2023-01-23T17:41:31;104132.58;;;6.11;100.00
37878;BME280;23715;53.652;8.516;2023-01-23T17:46:33;104138.28;;;6.18;100.00
37878;BME280;23715;53.652;8.516;2023-01-23T17:51:37;104141.55;;;6.06;100.00
37878;BME280;23715;53.652;8.516;2023-01-23T17:56:38;104146.20;;;6.24;100.00
37878;BME280;23715;53.652;8.516;2023-01-23T18:01:38;104146.54;;;6.31;100.00
37878;BME280;23715;53.652;8.516;2023-01-23T18:06:39;104144.84;;;6.25;100.00
37878;BME280;23715;53.652;8.516;2023-01-23T18:11:44;104153.78;;;6.24;100.00
37878;BME280;23715;53.652;8.516;2023-01-23T18:16:50;104147.52;;;6.25;100.00
37878;BME280;23715;53.652;8.516;2023-01-23T18:21:53;104156.38;;;6.29;100.00
37878;BME280;23715;53.652;8.516;2023-01-23T18:32:32;104154.76;;;6.19;100.00
37878;BME280;23715;53.652;8.516;2023-01-23T18:37:46;104150.19;;;6.25;100.00
37878;BME280;23715;53.652;8.516;2023-01-23T18:47:49;104163.09;;;5.93;100.00
37878;BME280;23715;53.652;8.516;2023-01-23T18:58:43;104152.87;;;5.92;100.00
37878;BME280;23715;53.652;8.516;2023-01-23T19:03:43;104159.27;;;5.79;100.00
37878;BME280;23715;53.652;8.516;2023-01-23T19:08:45;104162.07;;;6.04;100.00
37878;BME280;23715;53.652;8.516;2023-01-23T19:19:13;104152.94;;;6.21;100.00
37878;BME280;23715;53.652;8.516;2023-01-23T19:24:10;104150.17;;;6.27;100.00
37878;BME280;23715;53.652;8.516;2023-01-23T19:29:11;104158.32;;;6.18;100.00
37878;BME280;23715;53.652;8.516;2023-01-23T19:34:12;104170.23;;;5.92;100.00
37878;BME280;23715;53.652;8.516;2023-01-23T19:39:12;104153.95;;;5.77;100.00
37878;BME280;23715;53.652;8.516;2023-01-23T19:44:19;104152.97;;;5.84;100.00
37878;BME280;23715;53.652;8.516;2023-01-23T19:49:15;104159.50;;;5.94;100.00
37878;BME280;23715;53.652;8.516;2023-01-23T19:54:16;104166.05;;;5.71;100.00
37878;BME280;23715;53.652;8.516;2023-01-23T19:59:17;104179.84;;;5.69;100.00
37878;BME280;23715;53.652;8.516;2023-01-23T20:04:17;104145.38;;;5.49;100.00
37878;BME280;23715;53.652;8.516;2023-01-23T20:09:19;104170.66;;;5.55;100.00
37878;BME280;23715;53.652;8.516;2023-01-23T20:14:19;104179.03;;;5.64;100.00
37878;BME280;23715;53.652;8.516;2023-01-23T20:19:21;104182.95;;;5.72;100.00
37878;BME280;23715;53.652;8.516;2023-01-23T20:24:22;104185.14;;;5.74;100.00
37878;BME280;23715;53.652;8.516;2023-01-23T20:29:22;104180.77;;;5.66;100.00
37878;BME280;23715;53.652;8.516;2023-01-23T20:34:22;104192.80;;;5.65;100.00
37878;BME280;23715;53.652;8.516;2023-01-23T20:39:23;104198.61;;;5.63;100.00
37878;BME280;23715;53.652;8.516;2023-01-23T20:44:23;104195.09;;;5.59;100.00
37878;BME280;23715;53.652;8.516;2023-01-23T20:49:23;104194.28;;;5.54;100.00
37878;BME280;23715;53.652;8.516;2023-01-23T20:54:23;104200.02;;;5.58;100.00
37878;BME280;23715;53.652;8.516;2023-01-23T20:59:23;104200.50;;;5.53;100.00
37878;BME280;23715;53.652;8.516;2023-01-23T21:04:26;104195.42;;;5.71;100.00
37878;BME280;23715;53.652;8.516;2023-01-23T21:09:27;104195.86;;;5.69;100.00
37878;BME280;23715;53.652;8.516;2023-01-23T21:14:27;104197.25;;;5.66;100.00
37878;BME280;23715;53.652;8.516;2023-01-23T21:19:27;104195.91;;;5.67;100.00
37878;BME280;23715;53.652;8.516;2023-01-23T21:24:28;104202.39;;;5.43;100.00
37878;BME280;23715;53.652;8.516;2023-01-23T21:29:30;104206.23;;;5.57;100.00
37878;BME280;23715;53.652;8.516;2023-01-23T21:34:31;104218.03;;;5.79;100.00
37878;BME280;23715;53.652;8.516;2023-01-23T21:39:31;104215.75;;;5.83;100.00
37878;BME280;23715;53.652;8.516;2023-01-23T21:44:32;104213.20;;;5.71;100.00
37878;BME280;23715;53.652;8.516;2023-01-23T21:49:32;104219.31;;;5.82;100.00
37878;BME280;23715;53.652;8.516;2023-01-23T21:54:32;104223.84;;;5.77;100.00
37878;BME280;23715;53.652;8.516;2023-01-23T21:59:33;104227.41;;;5.76;100.00
37878;BME280;23715;53.652;8.516;2023-01-23T22:04:32;104231.67;;;5.92;100.00
37878;BME280;23715;53.652;8.516;2023-01-23T22:09:32;104242.38;;;5.89;100.00
37878;BME280;23715;53.652;8.516;2023-01-23T22:14:33;104242.98;;;5.75;100.00
37878;BME280;23715;53.652;8.516;2023-01-23T22:19:35;104243.22;;;5.53;100.00
37878;BME280;23715;53.652;8.516;2023-01-23T22:24:35;104241.09;;;5.45;100.00
37878;BME280;23715;53.652;8.516;2023-01-23T22:29:35;104246.34;;;5.54;100.00
37878;BME280;23715;53.652;8.516;2023-01-23T22:34:36;104246.34;;;5.54;100.00
37878;BME280;23715;53.652;8.516;2023-01-23T22:39:36;104242.80;;;5.52;100.00
37878;BME280;23715;53.652;8.516;2023-01-23T22:44:36;104242.27;;;5.59;100.00
37878;BME280;23715;53.652;8.516;2023-01-23T22:49:38;104241.95;;;5.48;100.00
37878;BME280;23715;53.652;8.516;2023-01-23T22:54:38;104246.80;;;5.52;100.00
37878;BME280;23715;53.652;8.516;2023-01-23T22:59:38;104244.55;;;5.53;100.00
37878;BME280;23715;53.652;8.516;2023-01-23T23:04:39;104249.16;;;5.39;100.00
37878;BME280;23715;53.652;8.516;2023-01-23T23:09:40;104242.91;;;5.38;100.00
37878;BME280;23715;53.652;8.516;2023-01-23T23:14:40;104247.70;;;5.50;100.00
37878;BME280;23715;53.652;8.516;2023-01-23T23:19:40;104246.03;;;5.41;100.00
37878;BME280;23715;53.652;8.516;2023-01-23T23:24:40;104249.09;;;5.45;100.00
37878;BME280;23715;53.652;8.516;2023-01-23T23:29:40;104250.91;;;5.40;100.00
37878;BME280;23715;53.652;8.516;2023-01-23T23:34:40;104251.62;;;5.57;100.00
37878;BME280;23715;53.652;8.516;2023-01-23T23:39:42;104256.66;;;5.44;100.00
37878;BME280;23715;53.652;8.516;2023-01-23T23:44:43;104249.89;;;5.53;100.00
37878;BME280;23715;53.652;8.516;2023-01-23T23:49:43;104247.69;;;5.51;100.00
37878;BME280;23715;53.652;8.516;2023-01-23T23:54:43;104252.65;;;5.44;100.00
37878;BME280;23715;53.652;8.516;2023-01-23T23:59:43;104246.53;;;5.33;100.00
